Time;durP1;ratioP1;P1;durP2;ratioP2;P2;SDS_P1;SDS_P2;PMS_P1;PMS_P2;Temp;Humidity;BMP_temperature;BMP_pressure;BME280_temperature;BME280_humidity;BME280_pressure;Samples;Min_cycle;Max_cycle;Signal;HPM_P1;HPM_P2
2021/03/23 00:01:31;;;;;;;3.53;3.23;;;;;;;0.64;85.25;96242.72;5065931;28;20381;-68
2021/03/23 00:04:00;;;;;;;7.80;5.03;;;;;;;0.60;85.01;96246.44;5065322;28;20225;-68
2021/03/23 00:06:29;;;;;;;6.63;5.53;;;;;;;0.52;85.09;96244.38;5066653;28;20226;-67
2021/03/23 00:08:57;;;;;;;6.33;5.30;;;;;;;0.43;85.31;96254.59;5072399;28;20271;-67
2021/03/23 00:11:29;;;;;;;5.83;4.77;;;;;;;0.39;85.87;96258.34;5063843;28;20518;-68
2021/03/23 00:13:58;;;;;;;6.70;5.27;;;;;;;0.39;86.81;96260.94;5075465;28;20221;-66
2021/03/23 00:16:29;;;;;;;5.97;5.30;;;;;;;0.30;86.76;96264.19;5050701;28;20291;-68
2021/03/23 00:18:57;;;;;;;7.43;6.73;;;;;;;0.24;87.23;96261.06;5065723;28;20272;-66
2021/03/23 00:21:25;;;;;;;5.47;5.07;;;;;;;0.23;87.12;96262.00;5070281;28;20222;-68
2021/03/23 00:23:54;;;;;;;6.57;4.83;;;;;;;0.16;87.30;96265.94;5064757;28;20222;-68
2021/03/23 00:26:22;;;;;;;8.40;4.77;;;;;;;0.12;87.76;96256.72;5063870;28;20225;-68
2021/03/23 00:28:50;;;;;;;7.67;6.37;;;;;;;0.16;88.31;96263.34;5070067;28;20242;-68
2021/03/23 00:31:18;;;;;;;5.73;4.53;;;;;;;0.11;87.99;96262.84;5068828;28;20226;-68
2021/03/23 00:33:57;;;;;;;6.47;5.93;;;;;;;0.15;87.51;96266.88;5068615;28;20770;-68
2021/03/23 00:36:28;;;;;;;6.73;5.80;;;;;;;0.09;88.36;96266.47;5061387;28;20222;-68
2021/03/23 00:38:55;;;;;;;5.63;4.23;;;;;;;0.05;87.96;96270.22;5074567;28;20740;-67
2021/03/23 00:41:23;;;;;;;7.33;4.77;;;;;;;-0.10;89.00;96277.25;5057160;28;20251;-68
2021/03/23 00:43:52;;;;;;;4.90;4.47;;;;;;;-0.04;89.56;96269.06;5055840;28;20229;-66
2021/03/23 00:46:19;;;;;;;8.27;4.93;;;;;;;-0.03;89.04;96262.94;5064500;28;20233;-68
2021/03/23 00:48:47;;;;;;;4.33;3.93;;;;;;;-0.02;89.07;96254.22;5069896;28;20277;-68
2021/03/23 00:51:15;;;;;;;5.83;5.33;;;;;;;-0.02;89.08;96257.66;5067283;28;20222;-67
2021/03/23 00:53:42;;;;;;;7.80;4.93;;;;;;;-0.03;88.61;96255.16;5066704;28;20234;-68
2021/03/23 00:56:09;;;;;;;6.30;5.73;;;;;;;-0.09;88.35;96253.84;5060426;28;20233;-67
2021/03/23 00:58:36;;;;;;;6.70;3.90;;;;;;;-0.07;88.64;96256.31;5063637;28;20233;-68
2021/03/23 01:01:03;;;;;;;7.23;5.23;;;;;;;-0.15;88.11;96250.81;5069748;28;20229;-67
2021/03/23 01:03:31;;;;;;;6.20;4.70;;;;;;;-0.21;88.41;96256.41;5075012;28;20212;-67
2021/03/23 01:05:58;;;;;;;6.83;5.57;;;;;;;-0.22;88.83;96259.94;5065580;28;20248;-68
2021/03/23 01:08:26;;;;;;;6.83;4.60;;;;;;;-0.24;88.80;96251.44;5074064;28;20319;-68
2021/03/23 01:10:53;;;;;;;4.23;3.83;;;;;;;-0.27;89.16;96255.09;5072451;28;20318;-68
2021/03/23 01:13:20;;;;;;;6.20;5.60;;;;;;;-0.28;88.59;96258.56;5070890;28;20759;-68
2021/03/23 01:15:47;;;;;;;11.03;5.80;;;;;;;-0.30;89.71;96256.09;5064389;28;20225;-67
2021/03/23 01:18:14;;;;;;;8.80;5.17;;;;;;;-0.29;89.19;96257.75;5069484;28;20800;-68
2021/03/23 01:20:41;;;;;;;10.07;6.77;;;;;;;-0.25;89.55;96253.22;5065558;28;20672;-67
2021/03/23 01:23:08;;;;;;;7.47;6.40;;;;;;;-0.20;88.89;96260.66;5061698;28;20755;-67
2021/03/23 01:25:36;;;;;;;6.00;5.43;;;;;;;-0.22;88.88;96259.94;5053512;28;20297;-68
2021/03/23 01:28:04;;;;;;;9.13;6.43;;;;;;;-0.22;89.68;96254.75;5075544;28;20342;-68
2021/03/23 01:30:31;;;;;;;9.10;6.53;;;;;;;-0.24;88.83;96259.22;5073853;28;20222;-67
2021/03/23 01:32:58;;;;;;;10.77;7.90;;;;;;;-0.25;89.70;96252.38;5061573;28;20350;-67
2021/03/23 01:35:27;;;;;;;8.60;6.73;;;;;;;-0.25;89.66;96252.38;5055125;28;20202;-68
2021/03/23 01:37:54;;;;;;;6.77;6.17;;;;;;;-0.25;89.12;96253.22;5073606;28;20271;-68
2021/03/23 01:40:24;;;;;;;10.60;6.33;;;;;;;-0.28;89.53;96249.03;5058193;28;20228;-67
2021/03/23 01:42:55;;;;;;;8.20;5.77;;;;;;;-0.28;89.26;96249.03;5061633;28;20270;-68
2021/03/23 01:45:32;;;;;;;8.90;7.13;;;;;;;-0.31;89.75;96249.25;5065075;28;20225;-68
2021/03/23 01:48:02;;;;;;;8.93;7.20;;;;;;;-0.31;89.33;96249.25;5072530;28;20591;-68
2021/03/23 01:50:30;;;;;;;8.97;6.90;;;;;;;-0.28;89.58;96249.03;5060034;28;20300;-68
2021/03/23 01:53:02;;;;;;;7.87;6.57;;;;;;;-0.21;89.65;96244.28;5064824;28;20698;-68
2021/03/23 01:55:32;;;;;;;6.13;5.53;;;;;;;-0.21;89.11;96235.66;5059799;28;20221;-68
2021/03/23 01:58:00;;;;;;;10.97;7.03;;;;;;;-0.22;88.72;96240.03;5058891;28;20238;-66
2021/03/23 02:00:27;;;;;;;9.63;7.33;;;;;;;-0.23;89.09;96238.38;5060767;28;20229;-67
2021/03/23 02:02:54;;;;;;;8.63;7.47;;;;;;;-0.23;89.39;96228.00;5057081;28;20246;-68
2021/03/23 02:05:26;;;;;;;8.13;7.37;;;;;;;-0.18;88.58;96223.34;5069565;28;20220;-67
2021/03/23 02:07:53;;;;;;;12.20;8.10;;;;;;;-0.13;88.99;96225.59;5072338;28;20233;-68
2021/03/23 02:10:21;;;;;;;10.33;8.23;;;;;;;-0.08;88.44;96223.53;5063921;28;20236;-68
2021/03/23 02:12:50;;;;;;;10.03;6.57;;;;;;;0.01;87.78;96222.91;5071479;28;20229;-68
2021/03/23 02:15:20;;;;;;;16.33;6.70;;;;;;;0.02;87.47;96219.38;5054034;28;20293;-68
2021/03/23 02:18:13;;;;;;;8.77;7.87;;;;;;;0.00;86.87;96218.66;5071678;28;20689;-68
2021/03/23 02:21:01;;;;;;;10.63;6.73;;;;;;;-0.02;86.82;96228.28;5050589;28;20229;-69
2021/03/23 02:23:32;;;;;;;13.47;8.57;;;;;;;-0.02;86.67;96217.91;5074153;28;20585;-68
2021/03/23 02:25:59;;;;;;;12.17;8.60;;;;;;;-0.04;86.75;96217.19;5060341;28;20218;-68
2021/03/23 02:28:27;;;;;;;11.03;8.13;;;;;;;-0.09;86.33;96216.66;5065666;28;20221;-67
2021/03/23 02:30:55;;;;;;;13.17;9.13;;;;;;;-0.10;87.03;96210.66;5068136;28;20254;-68
2021/03/23 02:33:22;;;;;;;10.40;6.87;;;;;;;-0.07;86.52;96214.81;5072208;28;20283;-68
2021/03/23 02:35:49;;;;;;;10.90;8.00;;;;;;;-0.15;86.64;96211.91;5061676;28;20228;-68
2021/03/23 02:38:17;;;;;;;6.30;5.70;;;;;;;-0.22;86.79;96205.47;5052170;28;20219;-67
2021/03/23 02:40:44;;;;;;;13.10;8.03;;;;;;;-0.31;87.17;96220.72;5063930;28;20236;-68
2021/03/23 02:43:12;;;;;;;10.23;9.17;;;;;;;-0.33;87.49;96214.00;5072757;28;20232;-69
2021/03/23 02:45:47;;;;;;;8.93;7.73;;;;;;;-0.22;87.50;96221.03;5060745;28;20218;-68
2021/03/23 02:48:14;;;;;;;14.00;8.70;;;;;;;-0.33;87.50;96211.41;5070769;28;20222;-67
2021/03/23 02:50:41;;;;;;;11.47;7.40;;;;;;;-0.47;87.57;96217.50;5069320;28;20268;-68
2021/03/23 02:53:08;;;;;;;9.00;7.37;;;;;;;-0.60;87.57;96217.50;5073792;28;20280;-68
2021/03/23 02:55:36;;;;;;;12.67;9.70;;;;;;;-0.62;88.02;96224.56;5072447;28;20273;-68
2021/03/23 02:58:02;;;;;;;11.30;7.97;;;;;;;-0.60;88.66;96217.50;5061203;28;20225;-68
2021/03/23 03:00:29;;;;;;;10.43;7.23;;;;;;;-0.62;88.90;96221.97;5074091;28;20759;-68
2021/03/23 03:02:57;;;;;;;9.33;6.83;;;;;;;-0.66;88.65;96222.25;5065279;28;20232;-68
2021/03/23 03:05:24;;;;;;;10.40;7.30;;;;;;;-0.71;88.32;96225.16;5074424;28;20242;-69
2021/03/23 03:07:51;;;;;;;8.97;8.03;;;;;;;-0.78;89.01;96228.25;5072814;28;20286;-68
2021/03/23 03:10:18;;;;;;;8.50;7.67;;;;;;;-0.79;88.81;96236.97;5065629;28;20282;-69
2021/03/23 03:12:46;;;;;;;10.87;8.67;;;;;;;-0.84;89.36;96233.81;5076155;28;20233;-68
2021/03/23 03:15:13;;;;;;;7.60;6.97;;;;;;;-0.90;89.75;96237.66;5050987;28;20598;-69
2021/03/23 03:17:40;;;;;;;8.90;8.10;;;;;;;-0.99;89.97;96238.25;5063398;28;20222;-68
2021/03/23 03:20:09;;;;;;;11.70;8.70;;;;;;;-1.08;89.83;96257.81;5061358;28;20724;-68
2021/03/23 03:22:36;;;;;;;9.10;8.10;;;;;;;-1.09;90.29;96243.19;5069712;28;20221;-69
2021/03/23 03:25:04;;;;;;;11.80;7.93;;;;;;;-1.09;90.03;96243.19;5046009;28;20279;-69
2021/03/23 03:27:31;;;;;;;7.23;6.50;;;;;;;-1.15;90.35;96251.34;5060859;28;20232;-68
2021/03/23 03:29:59;;;;;;;6.47;5.90;;;;;;;-1.31;90.50;96253.25;5065054;28;20252;-68
2021/03/23 03:32:26;;;;;;;9.70;7.03;;;;;;;-1.34;91.04;96256.03;5067440;28;20224;-69
2021/03/23 03:34:53;;;;;;;10.27;6.67;;;;;;;-1.37;90.67;96248.44;5070808;28;20433;-67
2021/03/23 03:37:20;;;;;;;6.70;6.07;;;;;;;-1.37;90.83;96256.22;5076312;28;20843;-68
2021/03/23 03:39:47;;;;;;;7.40;6.80;;;;;;;-1.47;90.96;96246.44;5075412;28;20233;-69
2021/03/23 03:42:14;;;;;;;9.10;6.93;;;;;;;-1.52;91.14;96245.06;5068663;28;20524;-68
2021/03/23 03:44:41;;;;;;;7.17;5.37;;;;;;;-1.55;91.21;96247.88;5067558;28;20226;-69
2021/03/23 03:47:08;;;;;;;11.57;6.80;;;;;;;-1.62;91.56;96250.00;5067378;28;20360;-69
2021/03/23 03:49:36;;;;;;;9.40;8.53;;;;;;;-1.68;91.36;96246.94;5066413;28;20483;-68
2021/03/23 03:52:03;;;;;;;14.00;5.77;;;;;;;-1.78;92.13;96252.69;5068510;28;20551;-69
2021/03/23 03:54:30;;;;;;;14.00;7.73;;;;;;;-1.81;92.29;96252.06;5062732;28;20518;-68
2021/03/23 03:56:57;;;;;;;12.87;8.67;;;;;;;-1.82;92.37;96260.75;5062501;28;20954;-69
2021/03/23 03:59:24;;;;;;;10.03;8.10;;;;;;;-1.82;92.75;96255.56;5068408;28;20470;-69
2021/03/23 04:01:51;;;;;;;9.07;6.97;;;;;;;-1.78;92.76;96262.22;5066405;28;20509;-69
2021/03/23 04:04:19;;;;;;;7.87;6.27;;;;;;;-1.83;93.07;96264.22;5050885;28;20473;-69
2021/03/23 04:06:46;;;;;;;8.80;7.17;;;;;;;-1.88;93.30;96271.47;5057194;28;20557;-69
2021/03/23 04:09:13;;;;;;;7.40;6.60;;;;;;;-1.87;93.48;96267.94;5071307;28;20472;-68
2021/03/23 04:11:40;;;;;;;8.90;6.37;;;;;;;-1.86;93.79;96259.25;5067702;28;20476;-69
2021/03/23 04:14:07;;;;;;;7.57;6.87;;;;;;;-1.81;93.95;96267.56;5074865;28;20525;-69
2021/03/23 04:16:33;;;;;;;8.53;7.87;;;;;;;-1.70;94.21;96257.41;5079834;28;20758;-69
2021/03/23 04:19:01;;;;;;;14.77;8.37;;;;;;;-1.69;94.01;96258.22;5063713;28;20465;-69
2021/03/23 04:21:28;;;;;;;9.70;7.67;;;;;;;-1.75;94.10;96252.50;5069810;28;20468;-68
2021/03/23 04:23:56;;;;;;;12.73;8.97;;;;;;;-1.80;94.17;96253.72;5062584;28;20469;-68
2021/03/23 04:26:23;;;;;;;8.93;8.03;;;;;;;-1.82;93.71;96253.81;5061431;28;20472;-69
2021/03/23 04:28:50;;;;;;;11.40;8.63;;;;;;;-1.83;93.79;96259.06;5060967;28;20572;-69
2021/03/23 04:31:32;;;;;;;12.30;7.33;;;;;;;-1.79;93.51;96265.72;5063873;28;21030;-69
2021/03/23 04:34:00;;;;;;;7.30;6.20;;;;;;;-1.82;93.68;96256.41;5044400;28;20479;-68
2021/03/23 04:36:28;;;;;;;14.07;8.23;;;;;;;-1.88;93.92;96267.09;5057690;28;20472;-69
2021/03/23 04:38:55;;;;;;;7.90;5.63;;;;;;;-1.91;93.79;96263.88;5065662;28;20539;-69
2021/03/23 04:41:22;;;;;;;7.47;6.50;;;;;;;-2.08;93.85;96263.16;5065203;28;20468;-68
2021/03/23 04:43:51;;;;;;;8.23;6.93;;;;;;;-2.10;94.00;96266.75;5073198;28;20484;-69
2021/03/23 04:46:21;;;;;;;8.50;7.60;;;;;;;-2.11;94.07;96265.06;5064534;28;20785;-68
2021/03/23 04:48:48;;;;;;;9.93;8.83;;;;;;;-2.03;94.05;96262.84;5061024;28;21025;-68
2021/03/23 04:51:17;;;;;;;12.97;10.30;;;;;;;-1.78;94.29;96262.22;5066305;28;20758;-69
2021/03/23 04:53:45;;;;;;;13.17;9.03;;;;;;;-1.75;94.51;96262.00;5076194;28;20522;-68
2021/03/23 04:56:21;;;;;;;9.20;8.40;;;;;;;-1.73;94.48;96255.00;5049271;28;21044;-69
2021/03/23 04:58:48;;;;;;;11.40;10.20;;;;;;;-1.71;94.06;96263.50;5059904;28;20452;-68
2021/03/23 05:01:15;;;;;;;9.93;8.93;;;;;;;-1.83;94.05;96264.22;5062614;28;20528;-68
2021/03/23 05:03:42;;;;;;;11.97;10.10;;;;;;;-1.96;93.75;96268.50;5058890;28;20498;-68
2021/03/23 05:06:10;;;;;;;11.87;9.10;;;;;;;-2.16;93.69;96272.28;5047032;28;20474;-68
2021/03/23 05:08:40;;;;;;;18.30;11.20;;;;;;;-2.24;93.47;96277.91;5055610;28;20488;-68
2021/03/23 05:11:09;;;;;;;11.83;7.90;;;;;;;-2.36;93.75;96283.81;5052500;28;20474;-68
2021/03/23 05:13:36;;;;;;;11.63;8.93;;;;;;;-2.38;93.89;96289.06;5063084;28;20525;-68
2021/03/23 05:16:03;;;;;;;8.03;7.33;;;;;;;-2.34;93.89;96294.88;5059466;28;20219;-68
2021/03/23 05:18:30;;;;;;;12.27;7.80;;;;;;;-2.23;94.04;96287.31;5059267;28;20465;-68
2021/03/23 05:20:57;;;;;;;9.00;7.17;;;;;;;-2.16;94.19;96288.63;5064761;28;20473;-69
2021/03/23 05:23:25;;;;;;;14.77;9.50;;;;;;;-2.12;94.25;96297.00;5061443;28;20479;-68
2021/03/23 05:25:52;;;;;;;13.47;7.83;;;;;;;-2.08;94.03;96301.94;5061698;28;20484;-68
2021/03/23 05:28:21;;;;;;;14.80;9.27;;;;;;;-2.05;94.13;96301.75;5060011;28;20464;-67
2021/03/23 05:30:49;;;;;;;9.10;7.70;;;;;;;-1.99;94.38;96310.06;5061651;28;20467;-68
2021/03/23 05:33:16;;;;;;;9.50;7.00;;;;;;;-1.92;94.53;96311.34;5053526;28;20478;-68
2021/03/23 05:35:44;;;;;;;10.47;8.57;;;;;;;-1.85;94.59;96312.66;5061180;28;20556;-67
2021/03/23 05:38:11;;;;;;;10.57;9.20;;;;;;;-1.79;94.49;96318.28;5064470;28;20472;-68
2021/03/23 05:40:41;;;;;;;9.13;8.23;;;;;;;-1.74;94.37;96316.28;5063008;28;20472;-68
2021/03/23 05:43:33;;;;;;;10.07;7.73;;;;;;;-1.65;94.13;96314.03;5067216;28;20591;-68
2021/03/23 05:46:04;;;;;;;8.97;7.43;;;;;;;-1.55;94.20;96321.16;5058500;28;20534;-67
2021/03/23 05:48:34;;;;;;;8.53;7.67;;;;;;;-1.46;94.00;96328.38;5062756;28;20463;-68
2021/03/23 05:51:09;;;;;;;10.70;7.87;;;;;;;-1.41;94.18;96328.06;5057261;28;20585;-67
2021/03/23 05:53:59;;;;;;;10.27;8.40;;;;;;;-1.32;93.69;96317.13;5061013;28;20452;-69
2021/03/23 05:56:28;;;;;;;12.20;9.93;;;;;;;-1.23;93.55;96315.75;5041442;28;20519;-68
2021/03/23 05:59:05;;;;;;;15.37;10.40;;;;;;;-1.19;93.48;96322.38;5055498;28;20523;-67
2021/03/23 06:01:38;;;;;;;13.53;8.87;;;;;;;-1.17;93.63;96320.53;5061311;28;20465;-68
2021/03/23 06:04:16;;;;;;;9.63;8.60;;;;;;;-1.16;93.85;96317.84;5056971;28;20473;-67
2021/03/23 06:06:50;;;;;;;12.93;7.33;;;;;;;-1.06;93.30;96318.09;5054747;28;20226;-67
2021/03/23 06:09:18;;;;;;;12.03;8.57;;;;;;;-0.93;92.82;96329.34;5054713;28;20904;-68
2021/03/23 06:11:57;;;;;;;16.90;9.47;;;;;;;-0.86;92.75;96329.78;5064501;28;20233;-68
2021/03/23 06:14:34;;;;;;;12.50;9.53;;;;;;;-0.80;92.73;96339.78;5054392;28;20251;-68
2021/03/23 06:17:12;;;;;;;10.23;7.57;;;;;;;-0.69;92.90;96326.13;5061296;28;20802;-67
2021/03/23 06:19:44;;;;;;;9.53;8.63;;;;;;;-0.61;92.55;96335.06;5058601;28;20231;-68
2021/03/23 06:22:36;;;;;;;9.27;8.13;;;;;;;-0.49;91.96;96328.25;5058414;28;20286;-68
2021/03/23 06:25:13;;;;;;;10.83;9.07;;;;;;;-0.38;91.17;96336.16;5064282;28;20492;-67
2021/03/23 06:27:46;;;;;;;10.83;8.33;;;;;;;-0.28;91.10;96337.22;5058861;28;20244;-68
2021/03/23 06:30:48;;;;;;;10.10;8.30;;;;;;;-0.10;91.36;96344.72;5064913;28;20291;-68
2021/03/23 06:33:20;;;;;;;14.10;10.70;;;;;;;0.08;90.25;96334.88;5058440;28;20237;-67
2021/03/23 06:35:48;;;;;;;10.13;9.07;;;;;;;0.32;89.08;96329.78;5068106;28;20223;-68
2021/03/23 06:38:34;;;;;;;10.83;8.80;;;;;;;0.41;87.50;96330.00;5057610;28;20218;-68
2021/03/23 06:41:14;;;;;;;10.07;9.03;;;;;;;0.53;86.80;96334.34;5057119;28;20218;-68
2021/03/23 06:43:44;;;;;;;16.00;12.93;;;;;;;0.68;86.99;96329.84;5057459;28;20749;-68
2021/03/23 06:46:28;;;;;;;21.67;11.80;;;;;;;0.70;86.65;96335.78;5055052;28;20764;-68
2021/03/23 06:49:07;;;;;;;12.70;10.47;;;;;;;0.73;86.28;96334.72;5058541;28;20230;-68
2021/03/23 06:51:35;;;;;;;10.80;9.67;;;;;;;0.68;87.06;96337.66;5067064;28;20222;-68
2021/03/23 06:54:19;;;;;;;13.60;11.37;;;;;;;0.71;87.51;96342.63;5063136;28;20278;-68
2021/03/23 06:56:47;;;;;;;13.87;11.60;;;;;;;0.67;88.19;96348.97;5035048;28;20696;-69
2021/03/23 06:59:17;;;;;;;17.60;12.30;;;;;;;0.71;89.13;96352.19;5026020;28;20279;-68
2021/03/23 07:01:46;;;;;;;15.37;13.83;;;;;;;0.76;88.32;96356.13;5039117;28;20232;-68
2021/03/23 07:04:30;;;;;;;16.63;12.13;;;;;;;0.80;88.01;96354.13;5040257;28;20308;-67
2021/03/23 07:07:12;;;;;;;15.03;13.13;;;;;;;0.71;88.58;96363.41;5032085;28;20226;-68
2021/03/23 07:09:49;;;;;;;14.37;11.80;;;;;;;0.84;87.65;96366.00;5053799;28;20769;-68
2021/03/23 07:12:16;;;;;;;17.50;14.90;;;;;;;0.79;87.04;96363.69;5063243;28;20218;-68
2021/03/23 07:14:46;;;;;;;16.53;11.00;;;;;;;1.03;87.68;96368.13;5057641;28;20326;-68
2021/03/23 07:17:25;;;;;;;15.33;9.80;;;;;;;1.14;87.02;96374.22;5062337;28;20430;-68
2021/03/23 07:19:56;;;;;;;26.20;12.33;;;;;;;1.27;85.97;96376.78;5059675;28;20249;-68
2021/03/23 07:22:33;;;;;;;12.93;10.13;;;;;;;1.49;85.95;96376.09;5056034;28;20210;-68
2021/03/23 07:25:01;;;;;;;14.07;12.57;;;;;;;1.69;85.38;96370.25;5061970;28;20244;-68
2021/03/23 07:27:30;;;;;;;21.07;14.53;;;;;;;1.94;84.60;96371.06;5062794;28;20239;-68
2021/03/23 07:30:27;;;;;;;21.13;15.17;;;;;;;2.18;84.13;96364.03;5054218;28;20250;-67
2021/03/23 07:33:02;;;;;;;16.20;12.43;;;;;;;2.41;82.47;96366.69;5055790;28;20278;-68
2021/03/23 07:35:33;;;;;;;14.13;10.60;;;;;;;2.47;83.12;96369.66;5056387;28;20222;-67
2021/03/23 07:38:10;;;;;;;13.37;11.07;;;;;;;2.63;82.29;96373.69;5065220;28;20218;-67
2021/03/23 07:40:43;;;;;;;16.57;11.83;;;;;;;3.08;81.91;96364.06;5056703;28;20226;-67
2021/03/23 07:43:37;;;;;;;13.77;11.83;;;;;;;3.59;79.55;96361.72;5060600;28;20226;-67
2021/03/23 07:46:08;;;;;;;14.83;13.30;;;;;;;3.76;79.14;96364.75;5059655;28;20505;-67
2021/03/23 07:48:44;;;;;;;14.17;12.13;;;;;;;4.06;76.37;96364.84;5059098;28;20214;-66
2021/03/23 07:51:20;;;;;;;14.63;11.73;;;;;;;4.11;75.82;96365.28;5063101;28;20217;-66
2021/03/23 07:53:47;;;;;;;12.53;9.67;;;;;;;4.21;76.24;96360.97;5063903;28;20222;-68
2021/03/23 07:56:35;;;;;;;18.50;12.50;;;;;;;4.61;75.75;96359.41;5061625;28;20252;-68
2021/03/23 07:59:11;;;;;;;11.73;10.53;;;;;;;4.76;74.25;96361.56;5070013;28;20232;-68
2021/03/23 08:01:45;;;;;;;16.67;11.87;;;;;;;4.74;73.17;96363.44;5061090;28;20932;-67
2021/03/23 08:04:16;;;;;;;12.10;9.50;;;;;;;4.65;72.41;96369.47;5064386;28;20216;-68
2021/03/23 08:06:54;;;;;;;9.87;8.93;;;;;;;4.31;73.70;96370.66;5061622;28;20231;-68
2021/03/23 08:09:55;;;;;;;9.57;8.67;;;;;;;4.14;74.44;96365.03;5061245;28;20236;-66
2021/03/23 08:12:43;;;;;;;20.10;12.33;;;;;;;3.96;76.12;96367.38;5066706;28;20223;-68
2021/03/23 08:15:19;;;;;;;13.80;10.00;;;;;;;3.67;76.97;96361.94;5062303;28;20235;-68
2021/03/23 08:18:31;;;;;;;15.43;10.90;;;;;;;3.78;76.78;96366.28;5063119;28;20287;-68
2021/03/23 08:21:16;;;;;;;12.60;10.10;;;;;;;3.79;76.92;96369.72;5021795;28;20223;-67
2021/03/23 08:23:54;;;;;;;12.07;10.50;;;;;;;3.81;76.96;96367.81;5055241;28;20224;-67
2021/03/23 08:26:32;;;;;;;11.00;9.93;;;;;;;3.85;76.68;96372.66;5043001;28;20333;-68
2021/03/23 08:29:08;;;;;;;10.23;9.20;;;;;;;3.89;76.18;96368.00;5060156;28;20226;-67
2021/03/23 08:31:47;;;;;;;13.20;10.63;;;;;;;3.92;76.48;96376.41;5064011;28;20252;-67
2021/03/23 08:34:24;;;;;;;14.73;9.50;;;;;;;3.80;75.58;96379.19;5065216;28;20297;-68
2021/03/23 08:37:06;;;;;;;7.70;7.00;;;;;;;3.83;74.73;96376.34;5061360;28;20226;-67
2021/03/23 08:39:48;;;;;;;9.57;8.23;;;;;;;3.76;75.97;96380.41;5064489;28;20218;-68
2021/03/23 08:42:18;;;;;;;8.47;6.53;;;;;;;3.82;74.31;96374.69;5072676;28;20692;-67
2021/03/23 08:44:48;;;;;;;9.73;8.80;;;;;;;3.91;74.88;96379.97;5062230;28;20265;-67
2021/03/23 08:47:25;;;;;;;9.70;6.63;;;;;;;4.12;72.11;96382.63;5056866;28;20230;-67
2021/03/23 08:49:54;;;;;;;10.37;8.67;;;;;;;4.17;73.01;96383.06;5058024;28;20667;-67
2021/03/23 08:52:37;;;;;;;9.23;6.40;;;;;;;4.17;72.51;96384.84;5064134;28;20228;-68
2021/03/23 08:55:06;;;;;;;11.73;9.63;;;;;;;4.12;73.07;96385.25;5059686;28;20239;-68
2021/03/23 08:57:49;;;;;;;8.73;5.77;;;;;;;4.12;73.02;96393.09;5061512;28;20219;-67
2021/03/23 09:00:47;;;;;;;6.67;6.17;;;;;;;4.17;72.74;96387.47;5064912;28;20761;-67
2021/03/23 09:03:39;;;;;;;7.60;6.33;;;;;;;4.19;72.49;96382.94;5059920;28;20254;-68
2021/03/23 09:06:08;;;;;;;12.73;9.47;;;;;;;4.09;73.29;96393.31;5063592;28;20684;-67
2021/03/23 09:08:40;;;;;;;11.00;7.87;;;;;;;4.27;72.29;96383.97;5056823;28;20232;-68
2021/03/23 09:11:11;;;;;;;9.37;8.50;;;;;;;4.25;72.30;96393.72;5059973;28;20290;-67
2021/03/23 09:14:21;;;;;;;7.57;5.23;;;;;;;4.27;70.14;96388.34;5055275;28;20227;-68
2021/03/23 09:17:13;;;;;;;5.17;4.70;;;;;;;4.61;68.93;96382.94;5057668;28;20278;-66
2021/03/23 09:19:47;;;;;;;5.73;4.33;;;;;;;4.74;68.89;96383.53;5065626;28;20239;-67
2021/03/23 09:22:37;;;;;;;5.70;5.20;;;;;;;4.81;69.99;96384.69;5059966;28;20228;-67
2021/03/23 09:25:52;;;;;;;6.40;4.00;;;;;;;4.89;66.71;96389.28;5051362;28;20720;-67
2021/03/23 09:28:50;;;;;;;7.27;4.93;;;;;;;5.19;66.38;96386.63;5054106;28;20218;-67
2021/03/23 09:31:20;;;;;;;6.00;4.40;;;;;;;5.31;65.90;96390.81;5043075;28;20684;-67
2021/03/23 09:33:49;;;;;;;4.97;4.33;;;;;;;5.48;65.32;96388.50;5042700;28;20622;-68
2021/03/23 09:36:45;;;;;;;5.07;4.57;;;;;;;5.35;68.29;96389.56;5063093;28;20344;-66
2021/03/23 09:39:36;;;;;;;3.80;3.07;;;;;;;5.06;64.94;96399.13;5059693;28;20758;-68
2021/03/23 09:42:20;;;;;;;4.87;4.37;;;;;;;5.07;65.79;96395.53;5057430;28;20214;-67
2021/03/23 09:44:59;;;;;;;6.50;5.90;;;;;;;5.04;66.42;96401.03;5063884;28;20233;-67
2021/03/23 09:47:49;;;;;;;6.17;4.87;;;;;;;5.16;66.00;96399.16;5061507;28;20480;-67
2021/03/23 09:50:40;;;;;;;5.73;4.97;;;;;;;5.07;66.89;96400.78;5062766;28;20441;-68
2021/03/23 09:53:12;;;;;;;8.70;5.37;;;;;;;5.02;66.63;96397.72;5064327;28;20232;-67
2021/03/23 09:55:40;;;;;;;6.07;4.40;;;;;;;4.97;66.82;96394.69;5059028;28;20230;-67
2021/03/23 09:58:20;;;;;;;6.57;5.83;;;;;;;4.94;67.84;96394.91;5063020;28;20314;-67
2021/03/23 10:00:47;;;;;;;5.80;5.33;;;;;;;4.90;67.28;96389.13;5059571;28;20692;-68
2021/03/23 10:03:20;;;;;;;6.23;5.50;;;;;;;5.22;67.27;96399.47;5059185;28;20719;-67
2021/03/23 10:05:59;;;;;;;11.57;7.33;;;;;;;5.34;69.78;96398.38;5063844;28;20242;-68
2021/03/23 10:08:31;;;;;;;7.07;6.27;;;;;;;5.35;67.19;96394.81;5060514;28;20234;-68
2021/03/23 10:11:11;;;;;;;6.70;6.10;;;;;;;5.06;67.59;96389.47;5057260;28;20729;-67
2021/03/23 10:13:45;;;;;;;8.33;6.93;;;;;;;5.20;68.32;96385.66;5063294;28;20232;-67
2021/03/23 10:16:25;;;;;;;8.33;5.90;;;;;;;5.55;67.62;96384.38;5063196;28;20229;-68
2021/03/23 10:18:54;;;;;;;9.90;7.80;;;;;;;5.43;67.90;96384.50;5056308;28;20229;-68
2021/03/23 10:21:28;;;;;;;11.37;8.87;;;;;;;5.54;67.99;96382.72;5052830;28;20237;-67
2021/03/23 10:23:57;;;;;;;11.30;8.40;;;;;;;5.60;66.81;96384.81;5062182;28;20687;-67
2021/03/23 10:26:26;;;;;;;7.43;6.67;;;;;;;5.33;67.59;96378.41;5065757;28;20230;-67
2021/03/23 10:28:56;;;;;;;10.60;9.33;;;;;;;5.11;69.24;96384.66;5059987;28;20230;-66
2021/03/23 10:31:32;;;;;;;14.70;8.10;;;;;;;5.29;68.72;96379.63;5063785;28;20706;-67
2021/03/23 10:34:06;;;;;;;13.97;8.77;;;;;;;5.62;68.00;96380.25;5056634;28;20217;-65
2021/03/23 10:36:45;;;;;;;9.07;8.17;;;;;;;5.78;66.65;96380.56;5064677;28;20339;-67
2021/03/23 10:39:30;;;;;;;7.77;6.83;;;;;;;5.78;64.80;96380.56;5059174;28;20230;-67
2021/03/23 10:41:57;;;;;;;12.90;7.77;;;;;;;5.91;63.56;96380.31;5059477;28;20222;-68
2021/03/23 10:44:29;;;;;;;9.27;7.00;;;;;;;6.06;63.92;96378.13;5060356;28;20224;-67
2021/03/23 10:46:58;;;;;;;10.23;7.93;;;;;;;6.13;63.40;96379.22;5060119;28;20230;-67
2021/03/23 10:49:32;;;;;;;9.20;7.93;;;;;;;6.25;63.85;96380.72;5062981;28;20228;-67
2021/03/23 10:52:02;;;;;;;6.07;4.00;;;;;;;6.35;60.14;96378.94;5061530;28;20629;-67
2021/03/23 10:54:32;;;;;;;9.63;8.40;;;;;;;6.40;64.76;96371.47;5055482;28;20261;-67
2021/03/23 10:57:20;;;;;;;6.70;5.10;;;;;;;6.41;63.92;96378.38;5064546;28;20237;-67
2021/03/23 10:59:48;;;;;;;6.70;6.10;;;;;;;6.21;61.49;96371.47;5061061;28;20226;-68
2021/03/23 11:02:22;;;;;;;5.40;4.50;;;;;;;6.55;59.77;96366.59;5061588;28;20719;-68
2021/03/23 11:05:07;;;;;;;10.83;7.43;;;;;;;6.81;61.29;96358.94;5061704;28;20232;-66
2021/03/23 11:07:36;;;;;;;13.13;5.90;;;;;;;6.83;59.34;96351.75;5065803;28;20734;-67
2021/03/23 11:10:08;;;;;;;8.53;7.93;;;;;;;6.97;60.42;96353.09;5059994;28;20218;-68
2021/03/23 11:12:35;;;;;;;6.87;6.27;;;;;;;6.69;61.33;96360.09;5065183;28;20222;-68
2021/03/23 11:15:04;;;;;;;7.17;5.30;;;;;;;7.15;60.56;96355.78;5065584;28;20221;-68
2021/03/23 11:17:34;;;;;;;7.50;5.60;;;;;;;6.73;59.53;96362.28;5059676;28;20221;-68
2021/03/23 11:20:08;;;;;;;6.33;5.87;;;;;;;6.73;61.69;96350.97;5064659;28;20645;-68
2021/03/23 11:22:36;;;;;;;8.53;6.30;;;;;;;6.73;62.92;96353.59;5057950;28;20627;-68
2021/03/23 11:25:05;;;;;;;5.47;4.97;;;;;;;6.62;61.11;96353.75;5051117;28;20226;-68
2021/03/23 11:27:32;;;;;;;7.53;6.30;;;;;;;6.85;58.72;96355.88;5047947;28;20225;-68
2021/03/23 11:29:59;;;;;;;7.30;6.60;;;;;;;6.90;58.77;96358.09;5065577;28;20222;-67
2021/03/23 11:32:27;;;;;;;6.53;4.97;;;;;;;6.54;58.05;96352.66;5056517;28;20226;-68
2021/03/23 11:34:55;;;;;;;5.47;5.00;;;;;;;6.89;55.98;96353.81;5067339;28;20229;-67
2021/03/23 11:37:22;;;;;;;4.83;4.33;;;;;;;7.08;56.10;96345.84;5063389;28;20214;-66
2021/03/23 11:39:52;;;;;;;4.30;3.90;;;;;;;7.08;56.26;96345.84;5058231;28;20266;-67
2021/03/23 11:42:28;;;;;;;6.70;4.33;;;;;;;7.14;57.18;96344.47;5059982;28;20229;-68
2021/03/23 11:45:02;;;;;;;5.20;4.73;;;;;;;6.68;58.20;96342.72;5060717;28;20699;-66
2021/03/23 11:47:40;;;;;;;9.00;6.23;;;;;;;6.74;58.57;96342.13;5053566;28;20237;-68
2021/03/23 11:50:10;;;;;;;5.77;3.57;;;;;;;6.92;55.24;96344.81;5058045;28;20218;-67
2021/03/23 11:52:38;;;;;;;5.67;4.77;;;;;;;7.09;55.92;96347.50;5066693;28;20222;-68
2021/03/23 11:55:08;;;;;;;8.40;3.57;;;;;;;6.87;60.03;96344.44;5056454;28;20230;-68
2021/03/23 11:57:36;;;;;;;6.10;5.60;;;;;;;6.92;58.48;96340.41;5059644;28;20219;-68